sensor_id;sensor_type;location;lat;lon;timestamp;P1;durP1;ratioP1;P2;durP2;ratioP2
73382;SDS011;61600;48.126;11.542;2022-07-29T00:02:13;2.08;;;1.27;;
73382;SDS011;61600;48.126;11.542;2022-07-29T00:04:39;2.92;;;1.40;;
73382;SDS011;61600;48.126;11.542;2022-07-29T00:07:04;2.72;;;1.67;;
73382;SDS011;61600;48.126;11.542;2022-07-29T00:09:31;4.97;;;1.40;;
73382;SDS011;61600;48.126;11.542;2022-07-29T00:11:58;2.22;;;1.10;;
73382;SDS011;61600;48.126;11.542;2022-07-29T00:14:25;4.63;;;1.30;;
73382;SDS011;61600;48.126;11.542;2022-07-29T00:16:51;2.97;;;1.42;;
73382;SDS011;61600;48.126;11.542;2022-07-29T00:19:17;4.18;;;1.52;;
73382;SDS011;61600;48.126;11.542;2022-07-29T00:21:42;2.72;;;1.40;;
73382;SDS011;61600;48.126;11.542;2022-07-29T00:24:08;2.42;;;1.70;;
73382;SDS011;61600;48.126;11.542;2022-07-29T00:26:33;3.85;;;1.40;;
73382;SDS011;61600;48.126;11.542;2022-07-29T00:28:59;3.95;;;1.70;;
73382;SDS011;61600;48.126;11.542;2022-07-29T00:31:25;2.78;;;1.23;;
73382;SDS011;61600;48.126;11.542;2022-07-29T00:33:51;2.28;;;1.30;;
73382;SDS011;61600;48.126;11.542;2022-07-29T00:36:17;2.75;;;1.33;;
73382;SDS011;61600;48.126;11.542;2022-07-29T00:38:44;2.75;;;1.33;;
73382;SDS011;61600;48.126;11.542;2022-07-29T00:41:11;2.28;;;1.20;;
73382;SDS011;61600;48.126;11.542;2022-07-29T00:43:37;2.67;;;1.30;;
73382;SDS011;61600;48.126;11.542;2022-07-29T00:46:03;2.17;;;1.30;;
73382;SDS011;61600;48.126;11.542;2022-07-29T00:48:29;2.28;;;1.25;;
73382;SDS011;61600;48.126;11.542;2022-07-29T00:50:55;1.80;;;1.20;;
73382;SDS011;61600;48.126;11.542;2022-07-29T00:53:22;2.33;;;1.42;;
73382;SDS011;61600;48.126;11.542;2022-07-29T00:55:50;2.67;;;1.10;;
73382;SDS011;61600;48.126;11.542;2022-07-29T00:58:16;2.70;;;1.20;;
73382;SDS011;61600;48.126;11.542;2022-07-29T01:00:42;2.38;;;1.20;;
73382;SDS011;61600;48.126;11.542;2022-07-29T01:03:08;2.38;;;1.20;;
73382;SDS011;61600;48.126;11.542;2022-07-29T01:05:34;1.63;;;1.10;;
73382;SDS011;61600;48.126;11.542;2022-07-29T01:08:00;1.77;;;1.10;;
73382;SDS011;61600;48.126;11.542;2022-07-29T01:10:27;2.38;;;0.90;;
73382;SDS011;61600;48.126;11.542;2022-07-29T01:12:55;1.67;;;0.88;;
73382;SDS011;61600;48.126;11.542;2022-07-29T01:15:23;1.92;;;0.90;;
73382;SDS011;61600;48.126;11.542;2022-07-29T01:23:52;1.70;;;0.98;;
73382;SDS011;61600;48.126;11.542;2022-07-29T01:34:29;1.00;;;0.70;;
73382;SDS011;61600;48.126;11.542;2022-07-29T01:37:09;1.35;;;0.90;;
73382;SDS011;61600;48.126;11.542;2022-07-29T01:39:43;1.00;;;0.70;;
73382;SDS011;61600;48.126;11.542;2022-07-29T01:42:14;1.48;;;0.85;;
73382;SDS011;61600;48.126;11.542;2022-07-29T01:47:35;2.25;;;0.68;;
73382;SDS011;61600;48.126;11.542;2022-07-29T01:50:10;1.05;;;0.75;;
73382;SDS011;61600;48.126;11.542;2022-07-29T01:52:39;1.10;;;0.75;;
73382;SDS011;61600;48.126;11.542;2022-07-29T01:55:14;1.55;;;0.70;;
73382;SDS011;61600;48.126;11.542;2022-07-29T01:57:42;1.30;;;0.82;;
73382;SDS011;61600;48.126;11.542;2022-07-29T02:00:12;1.25;;;0.75;;
73382;SDS011;61600;48.126;11.542;2022-07-29T02:02:39;1.95;;;0.80;;
73382;SDS011;61600;48.126;11.542;2022-07-29T02:05:07;1.35;;;0.93;;
73382;SDS011;61600;48.126;11.542;2022-07-29T02:07:37;1.73;;;0.98;;
73382;SDS011;61600;48.126;11.542;2022-07-29T02:10:05;1.17;;;0.80;;
73382;SDS011;61600;48.126;11.542;2022-07-29T02:12:32;1.67;;;1.15;;
73382;SDS011;61600;48.126;11.542;2022-07-29T02:14:59;1.20;;;0.80;;
73382;SDS011;61600;48.126;11.542;2022-07-29T02:17:33;1.77;;;1.00;;
73382;SDS011;61600;48.126;11.542;2022-07-29T02:20:05;3.20;;;1.08;;
73382;SDS011;61600;48.126;11.542;2022-07-29T02:22:33;1.60;;;0.90;;
73382;SDS011;61600;48.126;11.542;2022-07-29T02:25:02;1.13;;;0.80;;
73382;SDS011;61600;48.126;11.542;2022-07-29T02:27:29;2.33;;;1.10;;
73382;SDS011;61600;48.126;11.542;2022-07-29T02:29:57;2.47;;;1.05;;
73382;SDS011;61600;48.126;11.542;2022-07-29T02:32:25;2.60;;;1.20;;
73382;SDS011;61600;48.126;11.542;2022-07-29T02:34:53;1.15;;;0.80;;
73382;SDS011;61600;48.126;11.542;2022-07-29T02:37:19;1.58;;;0.90;;
73382;SDS011;61600;48.126;11.542;2022-07-29T02:39:46;1.40;;;0.90;;
73382;SDS011;61600;48.126;11.542;2022-07-29T02:42:15;2.35;;;1.05;;
73382;SDS011;61600;48.126;11.542;2022-07-29T02:44:42;2.38;;;1.10;;
73382;SDS011;61600;48.126;11.542;2022-07-29T02:47:22;1.25;;;0.90;;
73382;SDS011;61600;48.126;11.542;2022-07-29T02:49:56;2.28;;;1.20;;
73382;SDS011;61600;48.126;11.542;2022-07-29T02:52:29;3.80;;;1.02;;
73382;SDS011;61600;48.126;11.542;2022-07-29T02:57:55;2.72;;;1.00;;
73382;SDS011;61600;48.126;11.542;2022-07-29T03:00:26;2.72;;;1.10;;
73382;SDS011;61600;48.126;11.542;2022-07-29T03:02:53;1.80;;;1.00;;
73382;SDS011;61600;48.126;11.542;2022-07-29T03:05:22;2.28;;;1.10;;
73382;SDS011;61600;48.126;11.542;2022-07-29T03:10:18;2.80;;;1.10;;
73382;SDS011;61600;48.126;11.542;2022-07-29T03:12:43;2.30;;;1.08;;
73382;SDS011;61600;48.126;11.542;2022-07-29T03:15:10;2.75;;;1.08;;
73382;SDS011;61600;48.126;11.542;2022-07-29T03:17:36;1.08;;;0.90;;
73382;SDS011;61600;48.126;11.542;2022-07-29T03:20:03;2.75;;;1.10;;
73382;SDS011;61600;48.126;11.542;2022-07-29T03:22:29;1.60;;;1.08;;
73382;SDS011;61600;48.126;11.542;2022-07-29T03:24:55;1.45;;;0.98;;
73382;SDS011;61600;48.126;11.542;2022-07-29T03:27:21;2.10;;;1.00;;
73382;SDS011;61600;48.126;11.542;2022-07-29T03:29:47;2.83;;;1.05;;
73382;SDS011;61600;48.126;11.542;2022-07-29T03:32:12;1.20;;;0.82;;
73382;SDS011;61600;48.126;11.542;2022-07-29T03:34:38;2.53;;;1.08;;
73382;SDS011;61600;48.126;11.542;2022-07-29T03:37:04;1.73;;;0.98;;
73382;SDS011;61600;48.126;11.542;2022-07-29T03:39:33;0.98;;;0.82;;
73382;SDS011;61600;48.126;11.542;2022-07-29T03:42:02;2.25;;;1.25;;
73382;SDS011;61600;48.126;11.542;2022-07-29T03:44:30;2.50;;;1.20;;
73382;SDS011;61600;48.126;11.542;2022-07-29T03:46:58;1.63;;;1.10;;
73382;SDS011;61600;48.126;11.542;2022-07-29T03:49:27;2.13;;;1.15;;
73382;SDS011;61600;48.126;11.542;2022-07-29T03:51:53;1.77;;;0.90;;
73382;SDS011;61600;48.126;11.542;2022-07-29T03:54:19;2.42;;;1.20;;
73382;SDS011;61600;48.126;11.542;2022-07-29T03:56:45;2.33;;;1.10;;
73382;SDS011;61600;48.126;11.542;2022-07-29T03:59:14;1.63;;;0.90;;
73382;SDS011;61600;48.126;11.542;2022-07-29T04:01:41;3.25;;;1.10;;
73382;SDS011;61600;48.126;11.542;2022-07-29T04:04:07;2.03;;;1.10;;
73382;SDS011;61600;48.126;11.542;2022-07-29T04:06:37;3.45;;;0.95;;
73382;SDS011;61600;48.126;11.542;2022-07-29T04:09:04;2.47;;;1.10;;
73382;SDS011;61600;48.126;11.542;2022-07-29T04:11:29;2.25;;;1.20;;
73382;SDS011;61600;48.126;11.542;2022-07-29T04:13:55;1.48;;;0.95;;
73382;SDS011;61600;48.126;11.542;2022-07-29T04:16:21;4.70;;;1.23;;
73382;SDS011;61600;48.126;11.542;2022-07-29T04:18:46;1.90;;;1.15;;
73382;SDS011;61600;48.126;11.542;2022-07-29T04:21:12;2.53;;;1.30;;
73382;SDS011;61600;48.126;11.542;2022-07-29T04:23:38;2.78;;;1.63;;
73382;SDS011;61600;48.126;11.542;2022-07-29T04:26:03;2.03;;;1.20;;
73382;SDS011;61600;48.126;11.542;2022-07-29T04:28:29;2.65;;;1.10;;
73382;SDS011;61600;48.126;11.542;2022-07-29T04:30:55;2.35;;;1.40;;
73382;SDS011;61600;48.126;11.542;2022-07-29T04:33:20;2.53;;;1.10;;
73382;SDS011;61600;48.126;11.542;2022-07-29T04:35:46;1.70;;;1.08;;
73382;SDS011;61600;48.126;11.542;2022-07-29T04:38:11;3.03;;;1.30;;
73382;SDS011;61600;48.126;11.542;2022-07-29T04:40:37;2.28;;;1.30;;
73382;SDS011;61600;48.126;11.542;2022-07-29T04:43:02;2.55;;;1.38;;
73382;SDS011;61600;48.126;11.542;2022-07-29T04:45:28;3.38;;;1.45;;
73382;SDS011;61600;48.126;11.542;2022-07-29T04:47:54;1.88;;;1.40;;
73382;SDS011;61600;48.126;11.542;2022-07-29T04:50:20;4.50;;;1.30;;
73382;SDS011;61600;48.126;11.542;2022-07-29T04:52:45;3.35;;;1.98;;
73382;SDS011;61600;48.126;11.542;2022-07-29T04:55:11;2.40;;;1.30;;
73382;SDS011;61600;48.126;11.542;2022-07-29T04:57:37;2.22;;;1.30;;
73382;SDS011;61600;48.126;11.542;2022-07-29T05:00:03;2.35;;;1.50;;
73382;SDS011;61600;48.126;11.542;2022-07-29T05:02:30;3.33;;;1.27;;
73382;SDS011;61600;48.126;11.542;2022-07-29T05:04:56;2.70;;;1.23;;
73382;SDS011;61600;48.126;11.542;2022-07-29T05:07:22;1.90;;;1.27;;
73382;SDS011;61600;48.126;11.542;2022-07-29T05:09:47;2.22;;;1.13;;
73382;SDS011;61600;48.126;11.542;2022-07-29T05:12:13;2.60;;;1.67;;
73382;SDS011;61600;48.126;11.542;2022-07-29T05:14:39;2.63;;;1.45;;
73382;SDS011;61600;48.126;11.542;2022-07-29T05:17:04;5.25;;;1.80;;
73382;SDS011;61600;48.126;11.542;2022-07-29T05:19:30;3.13;;;1.52;;
73382;SDS011;61600;48.126;11.542;2022-07-29T05:21:57;3.33;;;1.77;;
73382;SDS011;61600;48.126;11.542;2022-07-29T05:24:22;5.05;;;1.98;;
73382;SDS011;61600;48.126;11.542;2022-07-29T05:26:48;4.28;;;1.38;;
73382;SDS011;61600;48.126;11.542;2022-07-29T05:29:14;4.40;;;1.30;;
73382;SDS011;61600;48.126;11.542;2022-07-29T05:31:40;2.03;;;1.40;;
73382;SDS011;61600;48.126;11.542;2022-07-29T05:34:05;4.13;;;1.55;;
73382;SDS011;61600;48.126;11.542;2022-07-29T05:36:31;2.70;;;1.30;;
73382;SDS011;61600;48.126;11.542;2022-07-29T05:38:57;4.45;;;2.00;;
73382;SDS011;61600;48.126;11.542;2022-07-29T05:41:22;2.33;;;1.45;;
73382;SDS011;61600;48.126;11.542;2022-07-29T05:43:48;2.75;;;1.35;;
73382;SDS011;61600;48.126;11.542;2022-07-29T05:46:14;2.90;;;1.60;;
73382;SDS011;61600;48.126;11.542;2022-07-29T05:48:40;2.47;;;1.55;;
73382;SDS011;61600;48.126;11.542;2022-07-29T05:51:05;1.70;;;1.30;;
73382;SDS011;61600;48.126;11.542;2022-07-29T05:53:31;2.65;;;1.40;;
73382;SDS011;61600;48.126;11.542;2022-07-29T05:55:56;2.28;;;1.42;;
73382;SDS011;61600;48.126;11.542;2022-07-29T05:58:22;2.22;;;1.48;;
73382;SDS011;61600;48.126;11.542;2022-07-29T06:00:48;2.75;;;1.38;;
73382;SDS011;61600;48.126;11.542;2022-07-29T06:03:13;3.20;;;1.52;;
73382;SDS011;61600;48.126;11.542;2022-07-29T06:05:39;3.08;;;1.70;;
73382;SDS011;61600;48.126;11.542;2022-07-29T06:08:05;3.58;;;1.40;;
73382;SDS011;61600;48.126;11.542;2022-07-29T06:10:32;4.72;;;1.27;;
73382;SDS011;61600;48.126;11.542;2022-07-29T06:12:59;2.38;;;1.50;;
73382;SDS011;61600;48.126;11.542;2022-07-29T06:15:25;2.45;;;1.40;;
73382;SDS011;61600;48.126;11.542;2022-07-29T06:17:51;2.92;;;1.40;;
73382;SDS011;61600;48.126;11.542;2022-07-29T06:20:18;2.67;;;1.75;;
73382;SDS011;61600;48.126;11.542;2022-07-29T06:22:44;4.55;;;1.88;;
73382;SDS011;61600;48.126;11.542;2022-07-29T06:25:09;3.90;;;1.50;;
73382;SDS011;61600;48.126;11.542;2022-07-29T06:27:35;4.25;;;1.50;;
73382;SDS011;61600;48.126;11.542;2022-07-29T06:30:01;5.15;;;3.10;;
73382;SDS011;61600;48.126;11.542;2022-07-29T06:32:28;2.63;;;1.77;;
73382;SDS011;61600;48.126;11.542;2022-07-29T06:34:53;3.40;;;1.50;;
73382;SDS011;61600;48.126;11.542;2022-07-29T06:37:19;3.80;;;1.60;;
73382;SDS011;61600;48.126;11.542;2022-07-29T06:39:45;2.78;;;1.50;;
73382;SDS011;61600;48.126;11.542;2022-07-29T06:42:11;4.30;;;1.90;;
73382;SDS011;61600;48.126;11.542;2022-07-29T06:44:36;3.67;;;1.20;;
73382;SDS011;61600;48.126;11.542;2022-07-29T06:47:03;4.15;;;1.73;;
73382;SDS011;61600;48.126;11.542;2022-07-29T06:49:28;3.58;;;1.85;;
73382;SDS011;61600;48.126;11.542;2022-07-29T06:51:54;3.28;;;1.60;;
73382;SDS011;61600;48.126;11.542;2022-07-29T06:54:20;2.42;;;1.50;;
73382;SDS011;61600;48.126;11.542;2022-07-29T06:56:47;1.90;;;1.33;;
73382;SDS011;61600;48.126;11.542;2022-07-29T07:01:40;2.67;;;1.60;;
73382;SDS011;61600;48.126;11.542;2022-07-29T07:04:09;2.83;;;1.25;;
73382;SDS011;61600;48.126;11.542;2022-07-29T07:06:35;2.80;;;1.40;;
73382;SDS011;61600;48.126;11.542;2022-07-29T07:09:01;4.00;;;2.00;;
73382;SDS011;61600;48.126;11.542;2022-07-29T07:11:27;5.07;;;1.40;;
73382;SDS011;61600;48.126;11.542;2022-07-29T07:13:53;2.92;;;1.58;;
73382;SDS011;61600;48.126;11.542;2022-07-29T07:16:19;4.90;;;1.58;;
73382;SDS011;61600;48.126;11.542;2022-07-29T07:18:44;3.95;;;1.88;;
73382;SDS011;61600;48.126;11.542;2022-07-29T07:21:10;2.95;;;1.83;;
73382;SDS011;61600;48.126;11.542;2022-07-29T07:23:36;4.30;;;1.58;;
73382;SDS011;61600;48.126;11.542;2022-07-29T07:26:02;2.97;;;1.30;;
73382;SDS011;61600;48.126;11.542;2022-07-29T07:28:30;2.72;;;1.10;;
73382;SDS011;61600;48.126;11.542;2022-07-29T07:30:56;1.83;;;1.10;;
73382;SDS011;61600;48.126;11.542;2022-07-29T07:33:22;3.85;;;1.40;;
73382;SDS011;61600;48.126;11.542;2022-07-29T07:35:48;2.38;;;1.10;;
73382;SDS011;61600;48.126;11.542;2022-07-29T07:38:13;1.98;;;1.20;;
73382;SDS011;61600;48.126;11.542;2022-07-29T07:40:39;1.92;;;1.17;;
73382;SDS011;61600;48.126;11.542;2022-07-29T07:43:05;4.28;;;1.23;;
73382;SDS011;61600;48.126;11.542;2022-07-29T07:45:31;1.50;;;1.10;;
73382;SDS011;61600;48.126;11.542;2022-07-29T07:48:05;2.25;;;1.20;;
73382;SDS011;61600;48.126;11.542;2022-07-29T07:50:31;1.63;;;1.02;;
73382;SDS011;61600;48.126;11.542;2022-07-29T07:52:56;2.95;;;1.55;;
73382;SDS011;61600;48.126;11.542;2022-07-29T07:55:23;2.03;;;1.10;;
73382;SDS011;61600;48.126;11.542;2022-07-29T07:57:49;2.35;;;1.30;;
73382;SDS011;61600;48.126;11.542;2022-07-29T08:00:16;8.93;;;1.40;;
73382;SDS011;61600;48.126;11.542;2022-07-29T08:02:42;4.43;;;1.42;;
73382;SDS011;61600;48.126;11.542;2022-07-29T08:05:11;2.97;;;1.00;;
73382;SDS011;61600;48.126;11.542;2022-07-29T08:07:41;2.50;;;1.10;;
73382;SDS011;61600;48.126;11.542;2022-07-29T08:10:07;2.55;;;1.13;;
73382;SDS011;61600;48.126;11.542;2022-07-29T08:12:33;4.13;;;1.20;;
73382;SDS011;61600;48.126;11.542;2022-07-29T08:14:58;2.55;;;1.25;;
73382;SDS011;61600;48.126;11.542;2022-07-29T08:17:25;1.70;;;1.20;;
73382;SDS011;61600;48.126;11.542;2022-07-29T08:19:52;2.78;;;1.17;;
73382;SDS011;61600;48.126;11.542;2022-07-29T08:22:17;2.20;;;1.33;;
73382;SDS011;61600;48.126;11.542;2022-07-29T08:24:43;1.92;;;1.10;;
73382;SDS011;61600;48.126;11.542;2022-07-29T08:27:10;3.38;;;1.50;;
73382;SDS011;61600;48.126;11.542;2022-07-29T08:29:36;2.72;;;1.73;;
73382;SDS011;61600;48.126;11.542;2022-07-29T08:32:03;2.25;;;1.20;;
73382;SDS011;61600;48.126;11.542;2022-07-29T08:34:29;3.10;;;1.67;;
73382;SDS011;61600;48.126;11.542;2022-07-29T08:36:55;2.95;;;1.27;;
73382;SDS011;61600;48.126;11.542;2022-07-29T08:39:21;3.05;;;1.40;;
73382;SDS011;61600;48.126;11.542;2022-07-29T08:44:15;7.60;;;2.60;;
73382;SDS011;61600;48.126;11.542;2022-07-29T08:46:41;4.03;;;1.70;;
73382;SDS011;61600;48.126;11.542;2022-07-29T08:49:07;4.10;;;1.77;;
73382;SDS011;61600;48.126;11.542;2022-07-29T08:51:33;5.15;;;1.98;;
73382;SDS011;61600;48.126;11.542;2022-07-29T08:54:01;2.22;;;1.50;;
73382;SDS011;61600;48.126;11.542;2022-07-29T08:56:27;5.65;;;1.70;;
73382;SDS011;61600;48.126;11.542;2022-07-29T08:58:53;2.17;;;1.42;;
73382;SDS011;61600;48.126;11.542;2022-07-29T09:01:24;3.38;;;1.63;;
73382;SDS011;61600;48.126;11.542;2022-07-29T09:03:54;4.03;;;1.88;;
73382;SDS011;61600;48.126;11.542;2022-07-29T09:06:21;2.33;;;1.58;;
73382;SDS011;61600;48.126;11.542;2022-07-29T09:08:48;3.00;;;1.67;;
73382;SDS011;61600;48.126;11.542;2022-07-29T09:11:14;3.88;;;1.90;;
73382;SDS011;61600;48.126;11.542;2022-07-29T09:13:40;2.25;;;1.52;;
73382;SDS011;61600;48.126;11.542;2022-07-29T09:16:06;3.17;;;1.70;;
73382;SDS011;61600;48.126;11.542;2022-07-29T09:21:01;3.00;;;1.67;;
73382;SDS011;61600;48.126;11.542;2022-07-29T09:26:31;4.13;;;2.10;;
73382;SDS011;61600;48.126;11.542;2022-07-29T09:28:58;3.58;;;1.75;;
73382;SDS011;61600;48.126;11.542;2022-07-29T09:31:34;3.38;;;1.80;;
73382;SDS011;61600;48.126;11.542;2022-07-29T09:34:02;2.58;;;1.70;;
73382;SDS011;61600;48.126;11.542;2022-07-29T09:36:29;6.60;;;2.75;;
73382;SDS011;61600;48.126;11.542;2022-07-29T09:38:58;2.80;;;1.80;;
73382;SDS011;61600;48.126;11.542;2022-07-29T09:41:25;6.97;;;2.03;;
73382;SDS011;61600;48.126;11.542;2022-07-29T09:43:58;3.63;;;2.08;;
73382;SDS011;61600;48.126;11.542;2022-07-29T09:46:25;5.53;;;1.98;;
73382;SDS011;61600;48.126;11.542;2022-07-29T09:49:07;4.97;;;2.13;;
73382;SDS011;61600;48.126;11.542;2022-07-29T09:51:33;4.45;;;1.90;;
73382;SDS011;61600;48.126;11.542;2022-07-29T09:53:58;2.70;;;1.80;;
73382;SDS011;61600;48.126;11.542;2022-07-29T09:56:38;5.53;;;2.22;;
73382;SDS011;61600;48.126;11.542;2022-07-29T09:59:05;3.22;;;2.00;;
73382;SDS011;61600;48.126;11.542;2022-07-29T10:01:32;5.63;;;2.13;;
73382;SDS011;61600;48.126;11.542;2022-07-29T10:03:58;3.97;;;2.00;;
73382;SDS011;61600;48.126;11.542;2022-07-29T10:06:23;3.10;;;2.30;;
73382;SDS011;61600;48.126;11.542;2022-07-29T10:08:49;3.20;;;2.00;;
73382;SDS011;61600;48.126;11.542;2022-07-29T10:11:16;4.13;;;2.25;;
73382;SDS011;61600;48.126;11.542;2022-07-29T10:13:43;4.63;;;2.25;;
73382;SDS011;61600;48.126;11.542;2022-07-29T10:16:10;3.78;;;2.00;;
73382;SDS011;61600;48.126;11.542;2022-07-29T10:18:40;6.47;;;2.70;;
73382;SDS011;61600;48.126;11.542;2022-07-29T10:21:06;5.35;;;2.30;;
73382;SDS011;61600;48.126;11.542;2022-07-29T10:23:33;4.30;;;2.28;;
73382;SDS011;61600;48.126;11.542;2022-07-29T10:26:01;3.22;;;2.08;;
73382;SDS011;61600;48.126;11.542;2022-07-29T10:28:29;5.30;;;2.17;;
73382;SDS011;61600;48.126;11.542;2022-07-29T10:30:59;4.88;;;2.05;;
73382;SDS011;61600;48.126;11.542;2022-07-29T10:44:43;2.47;;;1.77;;
73382;SDS011;61600;48.126;11.542;2022-07-29T10:47:23;4.10;;;2.20;;
73382;SDS011;61600;48.126;11.542;2022-07-29T10:49:56;4.35;;;2.40;;
73382;SDS011;61600;48.126;11.542;2022-07-29T10:52:23;7.78;;;2.42;;
73382;SDS011;61600;48.126;11.542;2022-07-29T10:54:52;3.10;;;2.05;;
73382;SDS011;61600;48.126;11.542;2022-07-29T11:07:37;2.92;;;1.98;;
73382;SDS011;61600;48.126;11.542;2022-07-29T11:23:23;3.90;;;2.05;;
73382;SDS011;61600;48.126;11.542;2022-07-29T11:28:50;6.88;;;2.03;;
73382;SDS011;61600;48.126;11.542;2022-07-29T11:31:19;3.10;;;1.90;;
73382;SDS011;61600;48.126;11.542;2022-07-29T11:39:37;3.10;;;2.00;;
73382;SDS011;61600;48.126;11.542;2022-07-29T11:47:19;4.32;;;2.20;;
73382;SDS011;61600;48.126;11.542;2022-07-29T11:49:46;4.85;;;2.30;;
73382;SDS011;61600;48.126;11.542;2022-07-29T11:52:13;4.30;;;1.92;;
73382;SDS011;61600;48.126;11.542;2022-07-29T11:54:39;2.75;;;1.80;;
73382;SDS011;61600;48.126;11.542;2022-07-29T11:57:08;4.22;;;1.85;;
73382;SDS011;61600;48.126;11.542;2022-07-29T11:59:41;2.70;;;2.30;;
73382;SDS011;61600;48.126;11.542;2022-07-29T12:02:08;2.90;;;1.92;;
73382;SDS011;61600;48.126;11.542;2022-07-29T12:07:33;4.53;;;1.98;;
73382;SDS011;61600;48.126;11.542;2022-07-29T12:09:59;3.38;;;1.90;;
73382;SDS011;61600;48.126;11.542;2022-07-29T12:12:26;2.92;;;2.28;;
73382;SDS011;61600;48.126;11.542;2022-07-29T12:15:12;3.47;;;1.98;;
73382;SDS011;61600;48.126;11.542;2022-07-29T12:17:46;5.32;;;2.25;;
73382;SDS011;61600;48.126;11.542;2022-07-29T12:20:12;3.47;;;2.10;;
73382;SDS011;61600;48.126;11.542;2022-07-29T12:22:39;4.47;;;2.10;;
73382;SDS011;61600;48.126;11.542;2022-07-29T12:25:08;6.05;;;2.20;;
73382;SDS011;61600;48.126;11.542;2022-07-29T12:27:35;4.30;;;2.22;;
73382;SDS011;61600;48.126;11.542;2022-07-29T12:30:06;4.93;;;2.03;;
73382;SDS011;61600;48.126;11.542;2022-07-29T12:32:41;5.68;;;2.20;;
73382;SDS011;61600;48.126;11.542;2022-07-29T12:35:13;3.83;;;1.95;;
73382;SDS011;61600;48.126;11.542;2022-07-29T12:37:41;2.78;;;2.00;;
73382;SDS011;61600;48.126;11.542;2022-07-29T12:40:09;4.68;;;2.08;;
73382;SDS011;61600;48.126;11.542;2022-07-29T12:42:36;6.47;;;2.80;;
73382;SDS011;61600;48.126;11.542;2022-07-29T12:45:03;4.30;;;2.33;;
73382;SDS011;61600;48.126;11.542;2022-07-29T12:47:30;4.65;;;2.08;;
73382;SDS011;61600;48.126;11.542;2022-07-29T12:52:35;5.22;;;2.08;;
73382;SDS011;61600;48.126;11.542;2022-07-29T12:55:01;3.65;;;1.75;;
73382;SDS011;61600;48.126;11.542;2022-07-29T12:57:28;2.83;;;1.90;;
73382;SDS011;61600;48.126;11.542;2022-07-29T13:02:26;4.35;;;2.17;;
73382;SDS011;61600;48.126;11.542;2022-07-29T13:04:56;4.07;;;1.95;;
73382;SDS011;61600;48.126;11.542;2022-07-29T13:07:27;6.40;;;2.05;;
73382;SDS011;61600;48.126;11.542;2022-07-29T13:09:54;5.80;;;1.73;;
73382;SDS011;61600;48.126;11.542;2022-07-29T13:15:26;6.32;;;2.30;;
73382;SDS011;61600;48.126;11.542;2022-07-29T13:17:51;3.45;;;2.20;;
73382;SDS011;61600;48.126;11.542;2022-07-29T13:20:17;4.15;;;2.10;;
73382;SDS011;61600;48.126;11.542;2022-07-29T13:22:46;4.65;;;2.10;;
73382;SDS011;61600;48.126;11.542;2022-07-29T13:25:12;3.47;;;2.00;;
73382;SDS011;61600;48.126;11.542;2022-07-29T13:30:06;3.88;;;2.20;;
73382;SDS011;61600;48.126;11.542;2022-07-29T13:32:33;4.82;;;2.22;;
73382;SDS011;61600;48.126;11.542;2022-07-29T13:35:00;3.88;;;1.95;;
73382;SDS011;61600;48.126;11.542;2022-07-29T13:37:28;4.15;;;2.40;;
73382;SDS011;61600;48.126;11.542;2022-07-29T13:39:55;4.15;;;2.33;;
73382;SDS011;61600;48.126;11.542;2022-07-29T13:42:22;3.25;;;1.90;;
73382;SDS011;61600;48.126;11.542;2022-07-29T13:44:48;3.50;;;2.10;;
73382;SDS011;61600;48.126;11.542;2022-07-29T13:47:16;4.72;;;2.00;;
73382;SDS011;61600;48.126;11.542;2022-07-29T13:49:41;3.13;;;1.98;;
73382;SDS011;61600;48.126;11.542;2022-07-29T13:52:07;6.57;;;2.03;;
73382;SDS011;61600;48.126;11.542;2022-07-29T13:54:33;4.13;;;2.20;;
73382;SDS011;61600;48.126;11.542;2022-07-29T13:57:03;5.30;;;2.30;;
73382;SDS011;61600;48.126;11.542;2022-07-29T13:59:29;3.00;;;1.95;;
73382;SDS011;61600;48.126;11.542;2022-07-29T14:01:55;3.50;;;1.92;;
73382;SDS011;61600;48.126;11.542;2022-07-29T14:04:21;2.80;;;1.80;;
73382;SDS011;61600;48.126;11.542;2022-07-29T14:06:49;3.83;;;1.70;;
73382;SDS011;61600;48.126;11.542;2022-07-29T14:09:15;2.70;;;1.90;;
73382;SDS011;61600;48.126;11.542;2022-07-29T14:11:41;3.15;;;1.98;;
73382;SDS011;61600;48.126;11.542;2022-07-29T14:14:07;4.20;;;2.25;;
73382;SDS011;61600;48.126;11.542;2022-07-29T14:16:33;4.15;;;1.98;;
73382;SDS011;61600;48.126;11.542;2022-07-29T14:18:58;4.78;;;2.10;;
73382;SDS011;61600;48.126;11.542;2022-07-29T14:21:25;4.60;;;1.88;;
73382;SDS011;61600;48.126;11.542;2022-07-29T14:23:51;4.53;;;1.90;;
73382;SDS011;61600;48.126;11.542;2022-07-29T14:26:18;4.30;;;1.98;;
73382;SDS011;61600;48.126;11.542;2022-07-29T14:28:43;2.83;;;1.70;;
73382;SDS011;61600;48.126;11.542;2022-07-29T14:31:09;4.18;;;1.83;;
73382;SDS011;61600;48.126;11.542;2022-07-29T14:33:35;2.35;;;1.67;;
73382;SDS011;61600;48.126;11.542;2022-07-29T14:36:01;3.30;;;1.70;;
73382;SDS011;61600;48.126;11.542;2022-07-29T14:38:26;2.60;;;1.80;;
73382;SDS011;61600;48.126;11.542;2022-07-29T14:40:52;3.85;;;1.70;;
73382;SDS011;61600;48.126;11.542;2022-07-29T14:43:17;4.38;;;1.77;;
73382;SDS011;61600;48.126;11.542;2022-07-29T14:45:43;2.63;;;1.70;;
73382;SDS011;61600;48.126;11.542;2022-07-29T14:48:09;2.70;;;1.50;;
73382;SDS011;61600;48.126;11.542;2022-07-29T14:50:36;3.10;;;1.92;;
73382;SDS011;61600;48.126;11.542;2022-07-29T14:55:28;3.60;;;1.85;;
73382;SDS011;61600;48.126;11.542;2022-07-29T14:57:54;3.00;;;1.92;;
73382;SDS011;61600;48.126;11.542;2022-07-29T15:00:20;2.55;;;1.70;;
73382;SDS011;61600;48.126;11.542;2022-07-29T15:05:12;2.80;;;1.85;;
73382;SDS011;61600;48.126;11.542;2022-07-29T15:07:38;3.47;;;1.73;;
73382;SDS011;61600;48.126;11.542;2022-07-29T15:10:03;3.85;;;2.10;;
73382;SDS011;61600;48.126;11.542;2022-07-29T15:12:30;3.35;;;2.20;;
73382;SDS011;61600;48.126;11.542;2022-07-29T15:14:56;3.53;;;1.90;;
73382;SDS011;61600;48.126;11.542;2022-07-29T15:17:21;4.85;;;2.05;;
73382;SDS011;61600;48.126;11.542;2022-07-29T15:19:47;4.30;;;2.28;;
73382;SDS011;61600;48.126;11.542;2022-07-29T15:22:13;4.80;;;1.90;;
73382;SDS011;61600;48.126;11.542;2022-07-29T15:24:39;4.93;;;1.80;;
73382;SDS011;61600;48.126;11.542;2022-07-29T15:27:04;3.50;;;1.63;;
73382;SDS011;61600;48.126;11.542;2022-07-29T15:29:31;5.30;;;2.53;;
73382;SDS011;61600;48.126;11.542;2022-07-29T15:31:56;3.70;;;1.83;;
73382;SDS011;61600;48.126;11.542;2022-07-29T15:34:22;3.10;;;2.13;;
73382;SDS011;61600;48.126;11.542;2022-07-29T15:36:51;3.08;;;2.15;;
73382;SDS011;61600;48.126;11.542;2022-07-29T15:39:17;3.47;;;1.98;;
73382;SDS011;61600;48.126;11.542;2022-07-29T15:41:43;4.57;;;2.00;;
73382;SDS011;61600;48.126;11.542;2022-07-29T15:44:09;5.38;;;2.50;;
73382;SDS011;61600;48.126;11.542;2022-07-29T15:46:35;8.20;;;3.45;;
73382;SDS011;61600;48.126;11.542;2022-07-29T15:49:19;3.90;;;1.92;;
73382;SDS011;61600;48.126;11.542;2022-07-29T15:51:45;8.50;;;2.20;;
73382;SDS011;61600;48.126;11.542;2022-07-29T15:54:11;4.03;;;2.10;;
73382;SDS011;61600;48.126;11.542;2022-07-29T15:56:37;4.90;;;2.10;;
73382;SDS011;61600;48.126;11.542;2022-07-29T15:59:03;6.15;;;2.28;;
73382;SDS011;61600;48.126;11.542;2022-07-29T16:01:28;3.90;;;2.55;;
73382;SDS011;61600;48.126;11.542;2022-07-29T16:03:54;5.72;;;2.03;;
73382;SDS011;61600;48.126;11.542;2022-07-29T16:06:20;3.65;;;2.45;;
73382;SDS011;61600;48.126;11.542;2022-07-29T16:08:46;7.05;;;2.50;;
73382;SDS011;61600;48.126;11.542;2022-07-29T16:11:12;4.32;;;2.45;;
73382;SDS011;61600;48.126;11.542;2022-07-29T16:13:37;4.82;;;2.13;;